Winchester, MA (01890)

9:04 AM EDT on July 29, 2016 (GMT -0400)
Cross Street | | Change Station

Elev 36 ft 42.47 °N, 71.13 °W | Updated 4 minutes ago

Overcast
Overcast
73.4 °F
Feels Like 74 °F
N
1.6
Wind Variable Wind from SW
Gusts 4.2 mph

Today
High -- | Low -- °F
--% Chance of Precip.
Yesterday
High -- | Low -- °F
Precip. -- in
Pressure 29.89 in
Visibility 10.0 miles
Clouds Few 8000 ft
Scattered Clouds 9500 ft
Mostly Cloudy 12000 ft
Heat Index 74 °F
Dew Point 67 °F
Humidity 80%
Rainfall 0.00 in
Snow Depth Not available.
5:34 AM 8:07 PM
Waning Crescent, 22% visible
METAR KBED 291256Z AUTO 36008KT 10SM -RA FEW080 SCT095 BKN120 23/19 A2986 RMK AO2 RAE10B55 SLP121 P0000 T02280194
Pressure 29.89 in
Visibility 10.0 miles
Clouds Few 8000 ft
Scattered Clouds 9500 ft
Mostly Cloudy 12000 ft
Heat Index 74 °F
Dew Point 67 °F
Humidity 80%
Rainfall 0.00 in
Snow Depth Not available.
5:34 AM 8:07 PM
Waning Crescent, 22% visible
METAR KBED 291256Z AUTO 36008KT 10SM -RA FEW080 SCT095 BKN120 23/19 A2986 RMK AO2 RAE10B55 SLP121 P0000 T02280194

10-Day Weather Forecast

Almanac

Astronomy

Jul. 29, 2016 Rise Set
Actual Time
Civil Twilight
Nautical Twilight
Astronomical Twilight
Moon
Length of Visible Light
Length of Day
Tomorrow will be .
, % of the Moon is Illuminated

Today's Extremes

State Highs State Lows

Community

WunderPhotos

Upload Photos

1,928,336 photos uploaded!

WunderBlog® & News

Nearby

Air Quality

  Air Quality AQ Index Pollutant
Not available.

Snow Depth

Station Depth Elevation

Earthquake Activity

City Distance Mag. Time & Date
Minimum magnitude displayed is 2.5.

Coastal Water Temperatures

Place Temperature

Stations

Nearby Weather Stations

Station Location Temp. Windchill Dew Point Humidity Wind Precip. Elev Updated Type
                   

Watches & Warnings

There are currently no watches in effect.